sensor_id;sensor_type;location;lat;lon;timestamp;P1;durP1;ratioP1;P2;durP2;ratioP2
2257;SDS011;1136;51.574;7.706;2023-06-24T00:02:25;9.30;;;8.50;;
2257;SDS011;1136;51.574;7.706;2023-06-24T00:04:52;8.90;;;7.97;;
2257;SDS011;1136;51.574;7.706;2023-06-24T00:07:18;8.87;;;8.17;;
2257;SDS011;1136;51.574;7.706;2023-06-24T00:09:48;9.63;;;8.77;;
2257;SDS011;1136;51.574;7.706;2023-06-24T00:12:15;10.20;;;8.57;;
2257;SDS011;1136;51.574;7.706;2023-06-24T00:14:46;9.07;;;8.17;;
2257;SDS011;1136;51.574;7.706;2023-06-24T00:17:13;12.40;;;9.40;;
2257;SDS011;1136;51.574;7.706;2023-06-24T00:19:40;9.47;;;8.60;;
2257;SDS011;1136;51.574;7.706;2023-06-24T00:22:06;9.37;;;8.57;;
2257;SDS011;1136;51.574;7.706;2023-06-24T00:24:33;8.90;;;7.97;;
2257;SDS011;1136;51.574;7.706;2023-06-24T00:26:59;12.27;;;9.17;;
2257;SDS011;1136;51.574;7.706;2023-06-24T00:29:26;10.73;;;8.17;;
2257;SDS011;1136;51.574;7.706;2023-06-24T00:31:53;8.77;;;7.90;;
2257;SDS011;1136;51.574;7.706;2023-06-24T00:34:19;10.80;;;7.67;;
2257;SDS011;1136;51.574;7.706;2023-06-24T00:36:46;11.90;;;8.70;;
2257;SDS011;1136;51.574;7.706;2023-06-24T00:39:13;9.07;;;8.27;;
2257;SDS011;1136;51.574;7.706;2023-06-24T00:41:40;8.50;;;7.80;;
2257;SDS011;1136;51.574;7.706;2023-06-24T00:44:06;9.70;;;8.90;;
2257;SDS011;1136;51.574;7.706;2023-06-24T00:46:33;10.37;;;9.37;;
2257;SDS011;1136;51.574;7.706;2023-06-24T00:49:00;9.07;;;8.30;;
2257;SDS011;1136;51.574;7.706;2023-06-24T00:51:29;10.10;;;9.10;;
2257;SDS011;1136;51.574;7.706;2023-06-24T00:54:00;12.67;;;8.20;;
2257;SDS011;1136;51.574;7.706;2023-06-24T00:56:35;13.00;;;8.80;;
2257;SDS011;1136;51.574;7.706;2023-06-24T00:59:04;12.57;;;9.13;;
2257;SDS011;1136;51.574;7.706;2023-06-24T01:01:34;9.47;;;8.77;;
2257;SDS011;1136;51.574;7.706;2023-06-24T01:04:04;9.53;;;8.30;;
2257;SDS011;1136;51.574;7.706;2023-06-24T01:06:34;9.60;;;8.70;;
2257;SDS011;1136;51.574;7.706;2023-06-24T01:09:02;10.90;;;9.60;;
2257;SDS011;1136;51.574;7.706;2023-06-24T01:11:29;11.33;;;9.63;;
2257;SDS011;1136;51.574;7.706;2023-06-24T01:13:56;9.70;;;8.90;;
2257;SDS011;1136;51.574;7.706;2023-06-24T01:16:58;13.83;;;9.53;;
2257;SDS011;1136;51.574;7.706;2023-06-24T01:22:48;8.63;;;7.73;;
2257;SDS011;1136;51.574;7.706;2023-06-24T01:25:32;9.13;;;8.43;;
2257;SDS011;1136;51.574;7.706;2023-06-24T01:33:38;9.67;;;8.87;;
2257;SDS011;1136;51.574;7.706;2023-06-24T01:36:11;9.70;;;8.67;;
2257;SDS011;1136;51.574;7.706;2023-06-24T01:39:15;9.47;;;8.60;;
2257;SDS011;1136;51.574;7.706;2023-06-24T01:41:36;9.20;;;8.20;;
2257;SDS011;1136;51.574;7.706;2023-06-24T01:44:08;8.60;;;7.90;;
2257;SDS011;1136;51.574;7.706;2023-06-24T01:46:36;9.30;;;8.53;;
2257;SDS011;1136;51.574;7.706;2023-06-24T01:49:04;10.33;;;9.20;;
2257;SDS011;1136;51.574;7.706;2023-06-24T01:51:34;11.27;;;8.97;;
2257;SDS011;1136;51.574;7.706;2023-06-24T01:54:03;9.23;;;8.33;;
2257;SDS011;1136;51.574;7.706;2023-06-24T01:56:33;10.00;;;9.13;;
2257;SDS011;1136;51.574;7.706;2023-06-24T01:59:01;9.37;;;8.53;;
2257;SDS011;1136;51.574;7.706;2023-06-24T02:01:31;10.40;;;9.50;;
2257;SDS011;1136;51.574;7.706;2023-06-24T02:03:59;11.73;;;9.30;;
2257;SDS011;1136;51.574;7.706;2023-06-24T02:06:26;11.20;;;10.20;;
2257;SDS011;1136;51.574;7.706;2023-06-24T02:08:55;11.27;;;10.10;;
2257;SDS011;1136;51.574;7.706;2023-06-24T02:11:22;11.03;;;9.93;;
2257;SDS011;1136;51.574;7.706;2023-06-24T02:13:50;10.27;;;9.40;;
2257;SDS011;1136;51.574;7.706;2023-06-24T02:16:18;12.00;;;8.93;;
2257;SDS011;1136;51.574;7.706;2023-06-24T02:18:46;10.73;;;9.73;;
2257;SDS011;1136;51.574;7.706;2023-06-24T02:21:17;12.50;;;8.87;;
2257;SDS011;1136;51.574;7.706;2023-06-24T02:23:46;9.47;;;8.67;;
2257;SDS011;1136;51.574;7.706;2023-06-24T02:26:14;9.97;;;9.07;;
2257;SDS011;1136;51.574;7.706;2023-06-24T02:28:41;11.20;;;8.43;;
2257;SDS011;1136;51.574;7.706;2023-06-24T02:31:10;11.80;;;10.80;;
2257;SDS011;1136;51.574;7.706;2023-06-24T02:33:37;11.70;;;10.50;;
2257;SDS011;1136;51.574;7.706;2023-06-24T02:36:03;11.27;;;10.17;;
2257;SDS011;1136;51.574;7.706;2023-06-24T02:38:30;11.40;;;10.30;;
2257;SDS011;1136;51.574;7.706;2023-06-24T02:40:57;10.57;;;9.73;;
2257;SDS011;1136;51.574;7.706;2023-06-24T02:43:24;12.57;;;10.60;;
2257;SDS011;1136;51.574;7.706;2023-06-24T02:45:51;9.30;;;8.40;;
2257;SDS011;1136;51.574;7.706;2023-06-24T02:48:18;11.60;;;8.97;;
2257;SDS011;1136;51.574;7.706;2023-06-24T02:50:45;10.90;;;9.80;;
2257;SDS011;1136;51.574;7.706;2023-06-24T02:53:12;10.87;;;9.77;;
2257;SDS011;1136;51.574;7.706;2023-06-24T02:55:41;10.63;;;9.60;;
2257;SDS011;1136;51.574;7.706;2023-06-24T02:58:10;11.37;;;10.47;;
2257;SDS011;1136;51.574;7.706;2023-06-24T03:00:37;11.60;;;10.23;;
2257;SDS011;1136;51.574;7.706;2023-06-24T03:03:05;9.97;;;9.10;;
2257;SDS011;1136;51.574;7.706;2023-06-24T03:05:32;12.97;;;10.47;;
2257;SDS011;1136;51.574;7.706;2023-06-24T03:08:01;10.13;;;9.10;;
2257;SDS011;1136;51.574;7.706;2023-06-24T03:10:30;10.00;;;9.10;;
2257;SDS011;1136;51.574;7.706;2023-06-24T03:12:56;14.40;;;10.47;;
2257;SDS011;1136;51.574;7.706;2023-06-24T03:15:23;11.27;;;10.30;;
2257;SDS011;1136;51.574;7.706;2023-06-24T03:17:53;10.07;;;9.07;;
2257;SDS011;1136;51.574;7.706;2023-06-24T03:20:20;11.90;;;10.20;;
2257;SDS011;1136;51.574;7.706;2023-06-24T03:22:47;9.33;;;8.43;;
2257;SDS011;1136;51.574;7.706;2023-06-24T03:25:13;11.00;;;8.90;;
2257;SDS011;1136;51.574;7.706;2023-06-24T03:27:40;9.73;;;8.80;;
2257;SDS011;1136;51.574;7.706;2023-06-24T03:30:07;10.93;;;9.03;;
2257;SDS011;1136;51.574;7.706;2023-06-24T03:32:34;10.00;;;9.10;;
2257;SDS011;1136;51.574;7.706;2023-06-24T03:35:02;9.93;;;8.83;;
2257;SDS011;1136;51.574;7.706;2023-06-24T03:37:29;10.00;;;9.10;;
2257;SDS011;1136;51.574;7.706;2023-06-24T03:39:56;10.37;;;9.33;;
2257;SDS011;1136;51.574;7.706;2023-06-24T03:42:23;10.47;;;9.47;;
2257;SDS011;1136;51.574;7.706;2023-06-24T03:44:50;10.57;;;9.67;;
2257;SDS011;1136;51.574;7.706;2023-06-24T03:47:16;11.47;;;9.13;;
2257;SDS011;1136;51.574;7.706;2023-06-24T03:49:43;11.60;;;10.47;;
2257;SDS011;1136;51.574;7.706;2023-06-24T03:52:10;10.47;;;9.57;;
2257;SDS011;1136;51.574;7.706;2023-06-24T03:54:36;11.77;;;10.57;;
2257;SDS011;1136;51.574;7.706;2023-06-24T03:57:03;9.70;;;8.87;;
2257;SDS011;1136;51.574;7.706;2023-06-24T03:59:30;11.10;;;10.10;;
2257;SDS011;1136;51.574;7.706;2023-06-24T04:01:57;11.07;;;10.03;;
2257;SDS011;1136;51.574;7.706;2023-06-24T04:04:23;12.47;;;10.53;;
2257;SDS011;1136;51.574;7.706;2023-06-24T04:06:50;12.70;;;10.33;;
2257;SDS011;1136;51.574;7.706;2023-06-24T04:09:17;10.30;;;9.30;;
2257;SDS011;1136;51.574;7.706;2023-06-24T04:11:43;12.03;;;9.23;;
2257;SDS011;1136;51.574;7.706;2023-06-24T04:14:10;11.57;;;8.70;;
2257;SDS011;1136;51.574;7.706;2023-06-24T04:16:37;10.40;;;9.40;;
2257;SDS011;1136;51.574;7.706;2023-06-24T04:19:03;11.13;;;10.03;;
2257;SDS011;1136;51.574;7.706;2023-06-24T04:21:30;14.30;;;10.63;;
2257;SDS011;1136;51.574;7.706;2023-06-24T04:23:57;9.50;;;8.50;;
2257;SDS011;1136;51.574;7.706;2023-06-24T04:26:23;11.70;;;10.57;;
2257;SDS011;1136;51.574;7.706;2023-06-24T04:28:50;10.37;;;9.47;;
2257;SDS011;1136;51.574;7.706;2023-06-24T04:31:17;10.60;;;9.70;;
2257;SDS011;1136;51.574;7.706;2023-06-24T04:33:44;11.03;;;9.00;;
2257;SDS011;1136;51.574;7.706;2023-06-24T04:36:10;9.77;;;8.90;;
2257;SDS011;1136;51.574;7.706;2023-06-24T04:38:37;14.83;;;9.50;;
2257;SDS011;1136;51.574;7.706;2023-06-24T04:41:03;10.13;;;9.33;;
2257;SDS011;1136;51.574;7.706;2023-06-24T04:43:30;9.00;;;8.10;;
2257;SDS011;1136;51.574;7.706;2023-06-24T04:45:57;10.53;;;9.53;;
2257;SDS011;1136;51.574;7.706;2023-06-24T04:48:23;10.60;;;9.00;;
2257;SDS011;1136;51.574;7.706;2023-06-24T04:50:50;10.47;;;9.17;;
2257;SDS011;1136;51.574;7.706;2023-06-24T04:53:20;9.07;;;8.27;;
2257;SDS011;1136;51.574;7.706;2023-06-24T04:55:47;14.90;;;9.10;;
2257;SDS011;1136;51.574;7.706;2023-06-24T04:58:13;9.77;;;8.77;;
2257;SDS011;1136;51.574;7.706;2023-06-24T05:00:40;9.70;;;8.67;;
2257;SDS011;1136;51.574;7.706;2023-06-24T05:03:09;9.20;;;8.40;;
2257;SDS011;1136;51.574;7.706;2023-06-24T05:05:36;8.97;;;8.17;;
2257;SDS011;1136;51.574;7.706;2023-06-24T05:08:03;9.20;;;8.40;;
2257;SDS011;1136;51.574;7.706;2023-06-24T05:10:30;8.50;;;7.90;;
2257;SDS011;1136;51.574;7.706;2023-06-24T05:12:57;9.60;;;8.67;;
2257;SDS011;1136;51.574;7.706;2023-06-24T05:15:23;12.40;;;9.03;;
2257;SDS011;1136;51.574;7.706;2023-06-24T05:17:50;8.50;;;7.80;;
2257;SDS011;1136;51.574;7.706;2023-06-24T05:20:19;9.07;;;8.37;;
2257;SDS011;1136;51.574;7.706;2023-06-24T05:22:46;9.93;;;9.03;;
2257;SDS011;1136;51.574;7.706;2023-06-24T05:25:12;8.77;;;7.83;;
2257;SDS011;1136;51.574;7.706;2023-06-24T05:27:39;9.57;;;8.80;;
2257;SDS011;1136;51.574;7.706;2023-06-24T05:30:06;10.40;;;8.87;;
2257;SDS011;1136;51.574;7.706;2023-06-24T05:32:33;8.83;;;7.93;;
2257;SDS011;1136;51.574;7.706;2023-06-24T05:35:00;10.60;;;9.23;;
2257;SDS011;1136;51.574;7.706;2023-06-24T05:37:26;11.70;;;8.67;;
2257;SDS011;1136;51.574;7.706;2023-06-24T05:39:53;9.33;;;8.53;;
2257;SDS011;1136;51.574;7.706;2023-06-24T05:42:20;9.20;;;8.23;;
2257;SDS011;1136;51.574;7.706;2023-06-24T05:44:46;8.13;;;7.43;;
2257;SDS011;1136;51.574;7.706;2023-06-24T05:47:13;9.60;;;8.60;;
2257;SDS011;1136;51.574;7.706;2023-06-24T05:49:39;8.77;;;7.97;;
2257;SDS011;1136;51.574;7.706;2023-06-24T05:52:06;9.50;;;8.20;;
2257;SDS011;1136;51.574;7.706;2023-06-24T05:54:33;8.97;;;7.77;;
2257;SDS011;1136;51.574;7.706;2023-06-24T05:56:59;9.47;;;8.27;;
2257;SDS011;1136;51.574;7.706;2023-06-24T05:59:26;7.63;;;6.93;;
2257;SDS011;1136;51.574;7.706;2023-06-24T06:01:53;10.33;;;7.87;;
2257;SDS011;1136;51.574;7.706;2023-06-24T06:04:19;8.83;;;8.00;;
2257;SDS011;1136;51.574;7.706;2023-06-24T06:06:47;8.60;;;7.80;;
2257;SDS011;1136;51.574;7.706;2023-06-24T06:09:14;7.93;;;7.30;;
2257;SDS011;1136;51.574;7.706;2023-06-24T06:11:41;8.00;;;7.23;;
2257;SDS011;1136;51.574;7.706;2023-06-24T06:14:08;8.67;;;6.80;;
2257;SDS011;1136;51.574;7.706;2023-06-24T06:16:34;7.83;;;7.23;;
2257;SDS011;1136;51.574;7.706;2023-06-24T06:19:01;7.97;;;7.20;;
2257;SDS011;1136;51.574;7.706;2023-06-24T06:21:28;8.77;;;7.87;;
2257;SDS011;1136;51.574;7.706;2023-06-24T06:23:54;7.70;;;7.07;;
2257;SDS011;1136;51.574;7.706;2023-06-24T06:26:21;7.37;;;6.77;;
2257;SDS011;1136;51.574;7.706;2023-06-24T06:28:48;7.40;;;6.70;;
2257;SDS011;1136;51.574;7.706;2023-06-24T06:31:14;8.30;;;6.80;;
2257;SDS011;1136;51.574;7.706;2023-06-24T06:33:41;10.00;;;9.10;;
2257;SDS011;1136;51.574;7.706;2023-06-24T06:36:09;6.90;;;6.40;;
2257;SDS011;1136;51.574;7.706;2023-06-24T06:38:36;10.20;;;8.13;;
2257;SDS011;1136;51.574;7.706;2023-06-24T06:41:02;7.37;;;6.73;;
2257;SDS011;1136;51.574;7.706;2023-06-24T06:43:29;7.03;;;6.40;;
2257;SDS011;1136;51.574;7.706;2023-06-24T06:45:55;9.40;;;6.80;;
2257;SDS011;1136;51.574;7.706;2023-06-24T06:48:22;7.70;;;6.90;;
2257;SDS011;1136;51.574;7.706;2023-06-24T06:50:49;8.93;;;8.03;;
2257;SDS011;1136;51.574;7.706;2023-06-24T06:53:15;7.47;;;6.87;;
2257;SDS011;1136;51.574;7.706;2023-06-24T06:55:42;7.00;;;6.07;;
2257;SDS011;1136;51.574;7.706;2023-06-24T06:58:09;6.80;;;6.30;;
2257;SDS011;1136;51.574;7.706;2023-06-24T07:00:36;7.00;;;6.40;;
2257;SDS011;1136;51.574;7.706;2023-06-24T07:03:02;7.80;;;7.20;;
2257;SDS011;1136;51.574;7.706;2023-06-24T07:05:29;8.20;;;7.50;;
2257;SDS011;1136;51.574;7.706;2023-06-24T07:07:56;8.10;;;7.40;;
2257;SDS011;1136;51.574;7.706;2023-06-24T07:10:23;7.03;;;6.53;;
2257;SDS011;1136;51.574;7.706;2023-06-24T07:12:49;9.10;;;6.40;;
2257;SDS011;1136;51.574;7.706;2023-06-24T07:15:17;7.63;;;6.73;;
2257;SDS011;1136;51.574;7.706;2023-06-24T07:17:45;9.17;;;7.27;;
2257;SDS011;1136;51.574;7.706;2023-06-24T07:20:12;6.43;;;5.87;;
2257;SDS011;1136;51.574;7.706;2023-06-24T07:22:39;7.67;;;6.90;;
2257;SDS011;1136;51.574;7.706;2023-06-24T07:25:05;6.63;;;6.13;;
2257;SDS011;1136;51.574;7.706;2023-06-24T07:27:32;6.60;;;6.03;;
2257;SDS011;1136;51.574;7.706;2023-06-24T07:29:59;8.23;;;6.67;;
2257;SDS011;1136;51.574;7.706;2023-06-24T07:32:26;6.53;;;6.03;;
2257;SDS011;1136;51.574;7.706;2023-06-24T07:34:52;7.57;;;6.37;;
2257;SDS011;1136;51.574;7.706;2023-06-24T07:37:19;7.33;;;6.63;;
2257;SDS011;1136;51.574;7.706;2023-06-24T07:39:50;9.33;;;8.40;;
2257;SDS011;1136;51.574;7.706;2023-06-24T07:42:17;7.07;;;6.30;;
2257;SDS011;1136;51.574;7.706;2023-06-24T07:44:45;7.17;;;6.47;;
2257;SDS011;1136;51.574;7.706;2023-06-24T07:47:12;6.70;;;6.10;;
2257;SDS011;1136;51.574;7.706;2023-06-24T07:49:39;7.10;;;6.40;;
2257;SDS011;1136;51.574;7.706;2023-06-24T07:52:06;6.70;;;6.20;;
2257;SDS011;1136;51.574;7.706;2023-06-24T07:54:33;7.43;;;6.40;;
2257;SDS011;1136;51.574;7.706;2023-06-24T07:57:00;7.90;;;7.30;;
2257;SDS011;1136;51.574;7.706;2023-06-24T07:59:27;11.60;;;7.10;;
2257;SDS011;1136;51.574;7.706;2023-06-24T08:01:54;7.60;;;7.00;;
2257;SDS011;1136;51.574;7.706;2023-06-24T08:04:20;7.23;;;6.63;;
2257;SDS011;1136;51.574;7.706;2023-06-24T08:06:47;7.20;;;6.03;;
2257;SDS011;1136;51.574;7.706;2023-06-24T08:09:15;7.40;;;6.80;;
2257;SDS011;1136;51.574;7.706;2023-06-24T08:11:43;7.40;;;6.80;;
2257;SDS011;1136;51.574;7.706;2023-06-24T08:14:10;7.70;;;7.10;;
2257;SDS011;1136;51.574;7.706;2023-06-24T08:16:36;8.60;;;8.00;;
2257;SDS011;1136;51.574;7.706;2023-06-24T08:19:03;8.10;;;7.40;;
2257;SDS011;1136;51.574;7.706;2023-06-24T08:21:30;9.43;;;8.20;;
2257;SDS011;1136;51.574;7.706;2023-06-24T08:23:56;7.67;;;7.00;;
2257;SDS011;1136;51.574;7.706;2023-06-24T08:26:23;7.43;;;6.73;;
2257;SDS011;1136;51.574;7.706;2023-06-24T08:28:50;9.60;;;8.60;;
2257;SDS011;1136;51.574;7.706;2023-06-24T08:31:16;8.10;;;7.50;;
2257;SDS011;1136;51.574;7.706;2023-06-24T08:33:44;8.37;;;7.70;;
2257;SDS011;1136;51.574;7.706;2023-06-24T08:36:13;8.27;;;7.47;;
2257;SDS011;1136;51.574;7.706;2023-06-24T08:38:40;7.67;;;6.93;;
2257;SDS011;1136;51.574;7.706;2023-06-24T08:41:07;11.33;;;7.43;;
2257;SDS011;1136;51.574;7.706;2023-06-24T08:43:33;9.63;;;8.80;;
2257;SDS011;1136;51.574;7.706;2023-06-24T08:46:00;9.37;;;8.57;;
2257;SDS011;1136;51.574;7.706;2023-06-24T08:48:27;8.43;;;7.60;;
2257;SDS011;1136;51.574;7.706;2023-06-24T08:50:56;8.33;;;7.53;;
2257;SDS011;1136;51.574;7.706;2023-06-24T08:53:24;7.67;;;7.07;;
2257;SDS011;1136;51.574;7.706;2023-06-24T08:55:53;8.97;;;8.17;;
2257;SDS011;1136;51.574;7.706;2023-06-24T08:58:20;8.20;;;7.53;;
2257;SDS011;1136;51.574;7.706;2023-06-24T09:00:47;9.00;;;8.13;;
2257;SDS011;1136;51.574;7.706;2023-06-24T09:03:14;8.10;;;7.27;;
2257;SDS011;1136;51.574;7.706;2023-06-24T09:05:41;8.47;;;7.77;;
2257;SDS011;1136;51.574;7.706;2023-06-24T09:08:07;10.33;;;9.40;;
2257;SDS011;1136;51.574;7.706;2023-06-24T09:10:35;7.10;;;6.60;;
2257;SDS011;1136;51.574;7.706;2023-06-24T09:13:03;8.90;;;8.20;;
2257;SDS011;1136;51.574;7.706;2023-06-24T09:15:36;8.67;;;8.00;;
2257;SDS011;1136;51.574;7.706;2023-06-24T09:18:04;8.50;;;7.80;;
2257;SDS011;1136;51.574;7.706;2023-06-24T09:20:32;7.83;;;7.20;;
2257;SDS011;1136;51.574;7.706;2023-06-24T09:22:59;10.03;;;9.00;;
2257;SDS011;1136;51.574;7.706;2023-06-24T09:25:33;7.57;;;6.93;;
2257;SDS011;1136;51.574;7.706;2023-06-24T09:28:01;8.03;;;7.53;;
2257;SDS011;1136;51.574;7.706;2023-06-24T09:30:27;8.07;;;7.37;;
2257;SDS011;1136;51.574;7.706;2023-06-24T09:32:55;9.13;;;8.33;;
2257;SDS011;1136;51.574;7.706;2023-06-24T09:35:22;9.03;;;8.30;;
2257;SDS011;1136;51.574;7.706;2023-06-24T09:37:55;8.07;;;7.37;;
2257;SDS011;1136;51.574;7.706;2023-06-24T09:40:22;9.20;;;8.50;;
2257;SDS011;1136;51.574;7.706;2023-06-24T09:45:29;9.13;;;8.27;;
2257;SDS011;1136;51.574;7.706;2023-06-24T09:47:56;9.17;;;8.47;;
2257;SDS011;1136;51.574;7.706;2023-06-24T09:50:27;8.40;;;7.77;;
2257;SDS011;1136;51.574;7.706;2023-06-24T09:52:53;7.50;;;6.90;;
2257;SDS011;1136;51.574;7.706;2023-06-24T09:55:22;6.80;;;6.30;;
2257;SDS011;1136;51.574;7.706;2023-06-24T09:57:50;6.70;;;6.30;;
2257;SDS011;1136;51.574;7.706;2023-06-24T10:00:20;8.83;;;8.10;;
2257;SDS011;1136;51.574;7.706;2023-06-24T10:02:49;8.40;;;7.60;;
2257;SDS011;1136;51.574;7.706;2023-06-24T10:05:16;8.77;;;8.07;;
2257;SDS011;1136;51.574;7.706;2023-06-24T10:07:42;9.60;;;8.70;;
2257;SDS011;1136;51.574;7.706;2023-06-24T10:10:09;10.50;;;9.40;;
2257;SDS011;1136;51.574;7.706;2023-06-24T10:12:37;9.40;;;8.60;;
2257;SDS011;1136;51.574;7.706;2023-06-24T10:15:04;8.70;;;8.10;;
2257;SDS011;1136;51.574;7.706;2023-06-24T10:17:31;7.70;;;7.20;;
2257;SDS011;1136;51.574;7.706;2023-06-24T10:19:58;8.43;;;7.57;;
2257;SDS011;1136;51.574;7.706;2023-06-24T10:22:29;7.10;;;6.50;;
2257;SDS011;1136;51.574;7.706;2023-06-24T10:25:01;7.10;;;6.60;;
2257;SDS011;1136;51.574;7.706;2023-06-24T10:27:29;8.27;;;6.87;;
2257;SDS011;1136;51.574;7.706;2023-06-24T10:30:02;6.37;;;5.77;;
2257;SDS011;1136;51.574;7.706;2023-06-24T10:32:39;6.90;;;6.40;;
2257;SDS011;1136;51.574;7.706;2023-06-24T10:35:09;8.00;;;7.50;;
2257;SDS011;1136;51.574;7.706;2023-06-24T10:37:59;6.80;;;6.30;;
2257;SDS011;1136;51.574;7.706;2023-06-24T10:40:36;6.30;;;5.80;;
2257;SDS011;1136;51.574;7.706;2023-06-24T10:45:50;7.07;;;6.57;;
2257;SDS011;1136;51.574;7.706;2023-06-24T10:48:18;7.50;;;7.00;;
2257;SDS011;1136;51.574;7.706;2023-06-24T10:50:48;7.80;;;7.20;;
2257;SDS011;1136;51.574;7.706;2023-06-24T10:53:18;8.00;;;7.40;;
2257;SDS011;1136;51.574;7.706;2023-06-24T10:55:45;7.33;;;6.80;;
2257;SDS011;1136;51.574;7.706;2023-06-24T10:58:14;7.50;;;7.00;;
2257;SDS011;1136;51.574;7.706;2023-06-24T11:00:42;6.83;;;6.20;;
2257;SDS011;1136;51.574;7.706;2023-06-24T11:05:41;6.90;;;6.50;;
2257;SDS011;1136;51.574;7.706;2023-06-24T11:08:09;6.17;;;5.77;;
2257;SDS011;1136;51.574;7.706;2023-06-24T11:10:43;6.40;;;5.90;;
2257;SDS011;1136;51.574;7.706;2023-06-24T11:13:10;6.20;;;5.80;;
2257;SDS011;1136;51.574;7.706;2023-06-24T11:15:38;6.10;;;5.70;;
2257;SDS011;1136;51.574;7.706;2023-06-24T11:18:07;7.40;;;6.20;;
2257;SDS011;1136;51.574;7.706;2023-06-24T11:20:36;7.53;;;7.03;;
2257;SDS011;1136;51.574;7.706;2023-06-24T11:23:06;6.83;;;6.33;;
2257;SDS011;1136;51.574;7.706;2023-06-24T11:25:40;6.27;;;5.87;;
2257;SDS011;1136;51.574;7.706;2023-06-24T11:28:14;6.17;;;5.70;;
2257;SDS011;1136;51.574;7.706;2023-06-24T11:30:48;6.07;;;5.77;;
2257;SDS011;1136;51.574;7.706;2023-06-24T11:33:25;7.30;;;6.60;;
2257;SDS011;1136;51.574;7.706;2023-06-24T11:35:53;5.40;;;5.10;;
2257;SDS011;1136;51.574;7.706;2023-06-24T11:38:20;6.13;;;5.73;;
2257;SDS011;1136;51.574;7.706;2023-06-24T11:40:47;6.73;;;6.23;;
2257;SDS011;1136;51.574;7.706;2023-06-24T11:43:14;6.10;;;5.80;;
2257;SDS011;1136;51.574;7.706;2023-06-24T11:45:41;5.53;;;5.17;;
2257;SDS011;1136;51.574;7.706;2023-06-24T11:48:08;6.23;;;5.70;;
2257;SDS011;1136;51.574;7.706;2023-06-24T11:50:35;5.90;;;5.50;;
2257;SDS011;1136;51.574;7.706;2023-06-24T11:53:03;6.50;;;6.00;;
2257;SDS011;1136;51.574;7.706;2023-06-24T11:55:31;6.07;;;5.67;;
2257;SDS011;1136;51.574;7.706;2023-06-24T11:58:04;6.03;;;5.50;;
2257;SDS011;1136;51.574;7.706;2023-06-24T12:00:32;6.77;;;6.07;;
2257;SDS011;1136;51.574;7.706;2023-06-24T12:03:03;6.57;;;6.10;;
2257;SDS011;1136;51.574;7.706;2023-06-24T12:05:36;5.80;;;5.50;;
2257;SDS011;1136;51.574;7.706;2023-06-24T12:08:06;5.57;;;5.27;;
2257;SDS011;1136;51.574;7.706;2023-06-24T12:10:35;5.17;;;4.87;;
2257;SDS011;1136;51.574;7.706;2023-06-24T12:13:03;6.70;;;5.87;;
2257;SDS011;1136;51.574;7.706;2023-06-24T12:15:32;6.67;;;6.23;;
2257;SDS011;1136;51.574;7.706;2023-06-24T12:17:59;6.47;;;5.97;;
2257;SDS011;1136;51.574;7.706;2023-06-24T12:20:28;6.17;;;5.77;;
2257;SDS011;1136;51.574;7.706;2023-06-24T12:22:59;6.57;;;5.90;;
2257;SDS011;1136;51.574;7.706;2023-06-24T12:25:26;6.23;;;5.73;;
2257;SDS011;1136;51.574;7.706;2023-06-24T12:27:52;6.83;;;6.20;;
2257;SDS011;1136;51.574;7.706;2023-06-24T12:30:20;5.17;;;4.87;;
2257;SDS011;1136;51.574;7.706;2023-06-24T12:32:49;6.20;;;5.70;;
2257;SDS011;1136;51.574;7.706;2023-06-24T12:35:16;5.63;;;5.13;;
2257;SDS011;1136;51.574;7.706;2023-06-24T12:37:43;6.33;;;5.70;;
2257;SDS011;1136;51.574;7.706;2023-06-24T12:40:11;5.90;;;5.40;;
2257;SDS011;1136;51.574;7.706;2023-06-24T12:42:38;4.70;;;4.30;;
2257;SDS011;1136;51.574;7.706;2023-06-24T12:45:05;5.07;;;4.43;;
2257;SDS011;1136;51.574;7.706;2023-06-24T12:47:32;5.10;;;4.60;;
2257;SDS011;1136;51.574;7.706;2023-06-24T12:49:59;4.83;;;4.53;;
2257;SDS011;1136;51.574;7.706;2023-06-24T12:52:26;5.57;;;5.13;;
2257;SDS011;1136;51.574;7.706;2023-06-24T12:54:53;4.40;;;4.10;;
2257;SDS011;1136;51.574;7.706;2023-06-24T12:57:19;5.00;;;4.60;;
2257;SDS011;1136;51.574;7.706;2023-06-24T12:59:46;4.10;;;3.70;;
2257;SDS011;1136;51.574;7.706;2023-06-24T13:02:13;4.40;;;4.10;;
2257;SDS011;1136;51.574;7.706;2023-06-24T13:04:40;5.10;;;4.70;;
2257;SDS011;1136;51.574;7.706;2023-06-24T13:07:06;5.23;;;4.83;;
2257;SDS011;1136;51.574;7.706;2023-06-24T13:09:33;5.50;;;5.00;;
2257;SDS011;1136;51.574;7.706;2023-06-24T13:12:00;5.23;;;4.60;;
2257;SDS011;1136;51.574;7.706;2023-06-24T13:14:27;5.10;;;4.80;;
2257;SDS011;1136;51.574;7.706;2023-06-24T13:16:55;5.27;;;4.87;;
2257;SDS011;1136;51.574;7.706;2023-06-24T13:19:22;5.40;;;4.87;;
2257;SDS011;1136;51.574;7.706;2023-06-24T13:21:48;5.20;;;4.83;;
2257;SDS011;1136;51.574;7.706;2023-06-24T13:24:15;5.13;;;4.70;;
2257;SDS011;1136;51.574;7.706;2023-06-24T13:26:42;4.50;;;4.20;;
2257;SDS011;1136;51.574;7.706;2023-06-24T13:29:09;4.97;;;4.67;;
2257;SDS011;1136;51.574;7.706;2023-06-24T13:31:36;5.00;;;4.60;;
2257;SDS011;1136;51.574;7.706;2023-06-24T13:34:03;6.60;;;4.43;;
2257;SDS011;1136;51.574;7.706;2023-06-24T13:36:31;4.90;;;4.50;;
2257;SDS011;1136;51.574;7.706;2023-06-24T13:39:04;4.73;;;4.30;;
2257;SDS011;1136;51.574;7.706;2023-06-24T13:41:35;6.63;;;4.67;;
2257;SDS011;1136;51.574;7.706;2023-06-24T13:44:02;5.93;;;4.30;;
2257;SDS011;1136;51.574;7.706;2023-06-24T13:46:30;4.70;;;4.33;;
2257;SDS011;1136;51.574;7.706;2023-06-24T13:48:58;4.57;;;4.27;;
2257;SDS011;1136;51.574;7.706;2023-06-24T13:51:25;5.43;;;4.90;;
2257;SDS011;1136;51.574;7.706;2023-06-24T13:53:52;4.73;;;4.27;;
2257;SDS011;1136;51.574;7.706;2023-06-24T13:56:21;8.13;;;4.90;;
2257;SDS011;1136;51.574;7.706;2023-06-24T13:58:50;7.53;;;5.00;;
2257;SDS011;1136;51.574;7.706;2023-06-24T14:01:17;4.20;;;3.80;;
2257;SDS011;1136;51.574;7.706;2023-06-24T14:03:45;4.20;;;3.87;;
2257;SDS011;1136;51.574;7.706;2023-06-24T14:06:16;4.80;;;4.40;;
2257;SDS011;1136;51.574;7.706;2023-06-24T14:08:43;4.40;;;4.00;;
2257;SDS011;1136;51.574;7.706;2023-06-24T14:11:11;4.93;;;4.03;;
2257;SDS011;1136;51.574;7.706;2023-06-24T14:13:38;4.70;;;4.33;;
2257;SDS011;1136;51.574;7.706;2023-06-24T14:16:04;4.40;;;4.10;;
2257;SDS011;1136;51.574;7.706;2023-06-24T14:18:32;4.10;;;3.83;;
2257;SDS011;1136;51.574;7.706;2023-06-24T14:21:03;4.57;;;4.27;;
2257;SDS011;1136;51.574;7.706;2023-06-24T14:23:30;5.07;;;4.40;;
2257;SDS011;1136;51.574;7.706;2023-06-24T14:25:58;5.13;;;4.63;;
2257;SDS011;1136;51.574;7.706;2023-06-24T14:28:25;4.03;;;3.73;;
2257;SDS011;1136;51.574;7.706;2023-06-24T14:30:52;3.90;;;3.70;;
2257;SDS011;1136;51.574;7.706;2023-06-24T14:33:19;3.63;;;3.43;;
2257;SDS011;1136;51.574;7.706;2023-06-24T14:35:46;5.30;;;4.20;;
2257;SDS011;1136;51.574;7.706;2023-06-24T14:38:12;3.70;;;3.40;;
2257;SDS011;1136;51.574;7.706;2023-06-24T14:40:39;4.30;;;4.00;;
2257;SDS011;1136;51.574;7.706;2023-06-24T14:43:06;4.27;;;3.87;;
2257;SDS011;1136;51.574;7.706;2023-06-24T14:45:32;4.17;;;3.87;;
2257;SDS011;1136;51.574;7.706;2023-06-24T14:47:59;4.33;;;4.00;;
2257;SDS011;1136;51.574;7.706;2023-06-24T14:50:26;4.77;;;4.37;;
2257;SDS011;1136;51.574;7.706;2023-06-24T14:52:52;5.00;;;4.20;;
2257;SDS011;1136;51.574;7.706;2023-06-24T14:55:19;4.13;;;3.73;;
2257;SDS011;1136;51.574;7.706;2023-06-24T14:57:46;4.43;;;3.97;;
2257;SDS011;1136;51.574;7.706;2023-06-24T15:00:12;3.97;;;3.67;;
2257;SDS011;1136;51.574;7.706;2023-06-24T15:02:39;5.50;;;4.57;;
2257;SDS011;1136;51.574;7.706;2023-06-24T15:05:06;4.97;;;4.57;;
2257;SDS011;1136;51.574;7.706;2023-06-24T15:07:34;5.03;;;4.30;;
2257;SDS011;1136;51.574;7.706;2023-06-24T15:10:01;4.40;;;4.00;;
2257;SDS011;1136;51.574;7.706;2023-06-24T15:12:28;3.63;;;3.40;;
2257;SDS011;1136;51.574;7.706;2023-06-24T15:14:55;5.90;;;4.30;;
2257;SDS011;1136;51.574;7.706;2023-06-24T15:17:21;4.17;;;3.87;;
2257;SDS011;1136;51.574;7.706;2023-06-24T15:19:50;4.80;;;4.43;;
2257;SDS011;1136;51.574;7.706;2023-06-24T15:22:17;5.93;;;4.90;;
2257;SDS011;1136;51.574;7.706;2023-06-24T15:24:47;4.50;;;4.20;;
2257;SDS011;1136;51.574;7.706;2023-06-24T15:27:14;4.27;;;4.00;;
2257;SDS011;1136;51.574;7.706;2023-06-24T15:29:40;3.80;;;3.60;;
2257;SDS011;1136;51.574;7.706;2023-06-24T15:32:07;4.70;;;4.30;;